Chachapoyas Airport


Codes: SPPY/CHH
Name: Chachapoyas Airport
City: Chachapoyas
Country: Peru
Elevation: 8333 ft.

Photos at Chachapoyas Airport


   Photos courtesy of SpottingLog. You can add your own sightings and photos by signing up for a free trial today.



No photos found.

Weather at Chachapoyas Airport


Time (UTC)DescriptionTempratureWindCloud coverageVisibilityPressureHumidity
26-Jun-2024 00:00Light Rain15°C2 mph, E90%10000m1016hPa72%
26-Jun-2024 03:00Broken Clouds12°C4 mph, E63%10000m1020hPa84%
26-Jun-2024 06:00Scattered Clouds9°C4 mph, SE45%10000m1022hPa93%
26-Jun-2024 09:00Broken Clouds8°C2 mph, SE75%10000m1021hPa95%
26-Jun-2024 12:00Broken Clouds8°C4 mph, SE64%10000m1022hPa93%
26-Jun-2024 15:00Scattered Clouds17°C2 mph, SE43%10000m1020hPa56%
26-Jun-2024 18:00Broken Clouds18°C4 mph, E58%10000m1016hPa52%
26-Jun-2024 21:00Light Rain16°C4 mph, NE73%10000m1014hPa70%
27-Jun-2024 00:00Light Rain10°C2 mph, E55%10000m1018hPa94%
27-Jun-2024 03:00Scattered Clouds9°C4 mph, SE28%10000m1021hPa96%
27-Jun-2024 06:00Scattered Clouds9°C4 mph, SE36%10000m1021hPa94%
27-Jun-2024 09:00Scattered Clouds8°C4 mph, SE48%10000m1020hPa94%
27-Jun-2024 12:00Scattered Clouds8°C4 mph, SE39%10000m1021hPa94%
27-Jun-2024 15:00Scattered Clouds16°C4 mph, SE27%10000m1019hPa58%
27-Jun-2024 18:00Light Rain17°C4 mph, E50%10000m1016hPa63%
27-Jun-2024 21:00Light Rain15°C2 mph, E83%10000m1014hPa75%
28-Jun-2024 00:00Light Rain11°C2 mph, NE73%10000m1017hPa91%
28-Jun-2024 03:00Scattered Clouds9°C2 mph, E28%10000m1020hPa96%
28-Jun-2024 06:00Scattered Clouds8°C2 mph, E29%10000m1019hPa96%
28-Jun-2024 09:00Scattered Clouds8°C2 mph, E31%10000m1018hPa96%
28-Jun-2024 12:00Scattered Clouds9°C2 mph, SE40%10000m1019hPa93%
28-Jun-2024 15:00Broken Clouds17°C0 mph, N63%10000m1018hPa61%
28-Jun-2024 18:00Broken Clouds19°C2 mph, N62%10000m1014hPa51%
28-Jun-2024 21:00Light Rain16°C4 mph, N100%10000m1013hPa73%
29-Jun-2024 00:00Light Rain12°C2 mph, NE91%10000m1016hPa92%
29-Jun-2024 03:00Scattered Clouds10°C2 mph, E42%10000m1020hPa95%
29-Jun-2024 06:00Broken Clouds10°C2 mph, E51%10000m1019hPa94%
29-Jun-2024 09:00Broken Clouds10°C0 mph, SE73%10000m1018hPa93%
29-Jun-2024 12:00Broken Clouds11°C2 mph, SE81%10000m1019hPa92%
29-Jun-2024 15:00Light Rain16°C2 mph, SE91%10000m1019hPa68%
29-Jun-2024 18:00Light Rain19°C2 mph, NE94%10000m1015hPa54%
29-Jun-2024 21:00Light Rain16°C2 mph, NE97%10000m1015hPa81%
30-Jun-2024 00:00Light Rain12°C2 mph, E96%10000m1018hPa96%
30-Jun-2024 03:00Light Rain11°C4 mph, E84%10000m1020hPa94%
30-Jun-2024 06:00Overcast Clouds11°C2 mph, E88%10000m1020hPa96%
30-Jun-2024 09:00Broken Clouds10°C2 mph, E81%10000m1019hPa90%
30-Jun-2024 12:00Broken Clouds9°C2 mph, E67%10000m1021hPa91%
30-Jun-2024 15:00Clear Sky17°C2 mph, E5%10000m1019hPa59%
30-Jun-2024 18:00Light Rain18°C2 mph, E25%10000m1015hPa55%
30-Jun-2024 21:00Light Rain17°C4 mph, NE77%10000m1014hPa66%